Kodiak Airport

Current Flights

Info
Name: Kodiak Airport
Identifier:  ADQ/PADQ
Local Time:  18. Jun 09:36
City
Flights per Day
12 flights
Distance: 405km (251mi)
Punctuality
76% (3 flights per day delayed)
Delay Average: 3 minutes
Current Weather
 10 C (Humidity: 81%)
  0kt (0km/h / 0mph) from 0°
  Scattered clouds at 1,500 feet (457 meter)
  Broken clouds at 4,100 feet (1,249 meter)
  16km (10 mi.)
 METAR PADQ 181653Z 00000KT 10SM SCT015 BKN041 10/07 A2991 RMK AO2 SLP129 T01000072

Current Delays

Departures
N/A
Arrivals
N/A

Destinations

Top Destinations
Airport Flights
per week
Seats
per week
  Anchorage (ANC) 65 4,812 9 687
  Bethel (BET) 0 57 0 8
  Kotzebue (OTZ) 0 28 0 4
  Seattle (SEA) 0 - 0 0
  Anchorage (MRI) 0 76 0 10
  King Salmon (AKN) 0 17 0 2
  Barrow (BRW) 0 28 0 4

Airlines & Planes

Top Airlines
Airline Flights
per Day
Seats
per Day
  Alaska Airlines 4 622
  Era Alaska 2 94
Alaska Central Express 2 -
Top Plane Types
Model Flights Seats
Bombardier Dash 8-100 2.6/day 94/day 94.96666666666667
Beech 1900D 2.5/day - 0
Boeing B737-800 2.4/day 396/day 396.6333333333333
Boeing B737-700 2.2/day 214/day 214.93333333333334
Boeing B737-900 0.1/day 10/day 10.866666666666667